Current | Forecast
Updated: 10:00 AM JST on November 19, 2017
Observed at Miho AB, Japan
Temperature 48°F
Humidity 43%
Dew Point 27°F
Wind West at 20 mph
Pressure 30.09 in (Rising)
Conditions Mostly Cloudy
Visibility 6.2 miles
UV 2 out of 16
Clouds (FEW) : 1500 ft
Scattered Clouds (SCT) : 3000 ft
Mostly Cloudy (BKN) : 5000 ft
Yesterday's Maximum 52°F
Yesterday's Minimum 45°F approx.
Yesterday's Heating Degree Days 17 approx.
Sunrise6:47 AM JST
Sunset4:57 PM JST
Moon Rise7:04 AM JST
Moon Set5:46 PM JST
Moon PhaseMoon Phase
New Moon
Raw METARMETAR RJOH 190100Z 28017KT 9999 FEW015 SCT030 BKN050 09/M03 Q1019


Monday
. High: 68° F.
Tuesday
. High: 66° F.
Wednesday
. High: 64° F.
Thursday
. High: 65° F.
Friday
. High: 66° F.
Saturday
. High: 66° F.
Sunday
. High: 66° F.
Monday
. High: 66° F.

Units: English | Metric

Find the Weather for any City, State or Zipcode, or Country:

U.S. State List | Severe Weather | Tropical Storms | Ski Conditions
United States | Canada | Central America | South America | Asia | Europe | Australia | Africa | Islands

Weather Underground

© Copyright 2017
The Weather Company, LLC